sensor_id;sensor_type;location;lat;lon;timestamp;P1;durP1;ratioP1;P2;durP2;ratioP2
4508;SDS011;2267;48.816;9.230;2023-05-14T00:00:34;13.20;;;12.30;;
4508;SDS011;2267;48.816;9.230;2023-05-14T00:03:01;13.87;;;12.70;;
4508;SDS011;2267;48.816;9.230;2023-05-14T00:05:28;12.53;;;11.53;;
4508;SDS011;2267;48.816;9.230;2023-05-14T00:07:55;13.63;;;12.73;;
4508;SDS011;2267;48.816;9.230;2023-05-14T00:10:22;12.90;;;11.80;;
4508;SDS011;2267;48.816;9.230;2023-05-14T00:12:50;13.10;;;12.20;;
4508;SDS011;2267;48.816;9.230;2023-05-14T00:15:17;14.50;;;13.30;;
4508;SDS011;2267;48.816;9.230;2023-05-14T00:17:43;13.60;;;12.60;;
4508;SDS011;2267;48.816;9.230;2023-05-14T00:20:10;14.10;;;12.90;;
4508;SDS011;2267;48.816;9.230;2023-05-14T00:22:37;13.43;;;12.40;;
4508;SDS011;2267;48.816;9.230;2023-05-14T00:25:06;13.40;;;12.43;;
4508;SDS011;2267;48.816;9.230;2023-05-14T00:27:33;13.23;;;12.30;;
4508;SDS011;2267;48.816;9.230;2023-05-14T00:30:03;13.23;;;12.20;;
4508;SDS011;2267;48.816;9.230;2023-05-14T00:32:31;13.60;;;12.37;;
4508;SDS011;2267;48.816;9.230;2023-05-14T00:34:58;12.40;;;11.50;;
4508;SDS011;2267;48.816;9.230;2023-05-14T00:37:25;13.30;;;12.37;;
4508;SDS011;2267;48.816;9.230;2023-05-14T00:39:52;15.57;;;14.50;;
4508;SDS011;2267;48.816;9.230;2023-05-14T00:44:54;14.30;;;13.10;;
4508;SDS011;2267;48.816;9.230;2023-05-14T00:47:21;13.27;;;12.27;;
4508;SDS011;2267;48.816;9.230;2023-05-14T00:49:48;13.90;;;12.80;;
4508;SDS011;2267;48.816;9.230;2023-05-14T00:52:15;14.03;;;12.83;;
4508;SDS011;2267;48.816;9.230;2023-05-14T00:54:43;13.70;;;12.70;;
4508;SDS011;2267;48.816;9.230;2023-05-14T00:57:12;14.53;;;13.33;;
4508;SDS011;2267;48.816;9.230;2023-05-14T00:59:38;13.60;;;12.60;;
4508;SDS011;2267;48.816;9.230;2023-05-14T01:02:07;13.37;;;12.43;;
4508;SDS011;2267;48.816;9.230;2023-05-14T01:04:34;13.90;;;12.90;;
4508;SDS011;2267;48.816;9.230;2023-05-14T01:14:56;13.03;;;12.03;;
4508;SDS011;2267;48.816;9.230;2023-05-14T01:17:49;13.40;;;12.40;;
4508;SDS011;2267;48.816;9.230;2023-05-14T01:20:25;14.03;;;13.03;;
4508;SDS011;2267;48.816;9.230;2023-05-14T01:22:52;12.93;;;12.03;;
4508;SDS011;2267;48.816;9.230;2023-05-14T01:25:18;13.80;;;12.80;;
4508;SDS011;2267;48.816;9.230;2023-05-14T01:28:19;13.63;;;12.63;;
4508;SDS011;2267;48.816;9.230;2023-05-14T01:33:14;12.30;;;11.40;;
4508;SDS011;2267;48.816;9.230;2023-05-14T01:35:43;12.43;;;11.40;;
4508;SDS011;2267;48.816;9.230;2023-05-14T01:38:11;12.87;;;11.97;;
4508;SDS011;2267;48.816;9.230;2023-05-14T01:40:39;12.43;;;11.43;;
4508;SDS011;2267;48.816;9.230;2023-05-14T01:43:07;13.57;;;12.50;;
4508;SDS011;2267;48.816;9.230;2023-05-14T01:45:34;13.33;;;12.33;;
4508;SDS011;2267;48.816;9.230;2023-05-14T01:48:02;13.00;;;12.00;;
4508;SDS011;2267;48.816;9.230;2023-05-14T01:50:29;11.73;;;10.93;;
4508;SDS011;2267;48.816;9.230;2023-05-14T01:52:56;14.60;;;13.50;;
4508;SDS011;2267;48.816;9.230;2023-05-14T01:55:23;14.50;;;13.50;;
4508;SDS011;2267;48.816;9.230;2023-05-14T01:57:51;13.10;;;12.10;;
4508;SDS011;2267;48.816;9.230;2023-05-14T02:00:18;12.10;;;11.10;;
4508;SDS011;2267;48.816;9.230;2023-05-14T02:02:46;12.33;;;11.40;;
4508;SDS011;2267;48.816;9.230;2023-05-14T02:05:13;12.90;;;11.90;;
4508;SDS011;2267;48.816;9.230;2023-05-14T02:07:39;13.03;;;12.03;;
4508;SDS011;2267;48.816;9.230;2023-05-14T02:10:06;12.73;;;11.80;;
4508;SDS011;2267;48.816;9.230;2023-05-14T02:12:34;12.67;;;11.77;;
4508;SDS011;2267;48.816;9.230;2023-05-14T02:15:01;12.63;;;11.73;;
4508;SDS011;2267;48.816;9.230;2023-05-14T02:17:29;12.87;;;11.87;;
4508;SDS011;2267;48.816;9.230;2023-05-14T02:19:55;12.63;;;11.73;;
4508;SDS011;2267;48.816;9.230;2023-05-14T02:22:22;13.20;;;12.20;;
4508;SDS011;2267;48.816;9.230;2023-05-14T02:24:49;12.67;;;11.77;;
4508;SDS011;2267;48.816;9.230;2023-05-14T02:27:16;13.93;;;12.83;;
4508;SDS011;2267;48.816;9.230;2023-05-14T02:29:43;13.10;;;12.20;;
4508;SDS011;2267;48.816;9.230;2023-05-14T02:32:10;12.37;;;11.47;;
4508;SDS011;2267;48.816;9.230;2023-05-14T02:34:37;12.97;;;11.80;;
4508;SDS011;2267;48.816;9.230;2023-05-14T02:37:04;12.33;;;11.20;;
4508;SDS011;2267;48.816;9.230;2023-05-14T02:39:31;11.80;;;11.00;;
4508;SDS011;2267;48.816;9.230;2023-05-14T02:41:57;12.80;;;11.90;;
4508;SDS011;2267;48.816;9.230;2023-05-14T02:44:24;12.07;;;11.17;;
4508;SDS011;2267;48.816;9.230;2023-05-14T02:46:51;12.47;;;11.57;;
4508;SDS011;2267;48.816;9.230;2023-05-14T02:49:18;14.10;;;13.10;;
4508;SDS011;2267;48.816;9.230;2023-05-14T02:51:44;13.50;;;12.20;;
4508;SDS011;2267;48.816;9.230;2023-05-14T02:54:11;12.53;;;11.70;;
4508;SDS011;2267;48.816;9.230;2023-05-14T02:56:38;11.70;;;10.70;;
4508;SDS011;2267;48.816;9.230;2023-05-14T02:59:05;12.73;;;11.83;;
4508;SDS011;2267;48.816;9.230;2023-05-14T03:01:32;11.50;;;10.70;;
4508;SDS011;2267;48.816;9.230;2023-05-14T03:03:59;12.20;;;11.30;;
4508;SDS011;2267;48.816;9.230;2023-05-14T03:06:26;13.40;;;12.27;;
4508;SDS011;2267;48.816;9.230;2023-05-14T03:08:52;11.60;;;10.70;;
4508;SDS011;2267;48.816;9.230;2023-05-14T03:11:19;12.30;;;11.40;;
4508;SDS011;2267;48.816;9.230;2023-05-14T03:13:46;12.13;;;11.03;;
4508;SDS011;2267;48.816;9.230;2023-05-14T03:16:14;12.17;;;11.27;;
4508;SDS011;2267;48.816;9.230;2023-05-14T03:18:41;11.40;;;10.70;;
4508;SDS011;2267;48.816;9.230;2023-05-14T03:21:08;12.33;;;11.43;;
4508;SDS011;2267;48.816;9.230;2023-05-14T03:23:34;11.43;;;10.63;;
4508;SDS011;2267;48.816;9.230;2023-05-14T03:26:01;12.20;;;11.20;;
4508;SDS011;2267;48.816;9.230;2023-05-14T03:28:29;11.57;;;10.60;;
4508;SDS011;2267;48.816;9.230;2023-05-14T03:30:55;10.63;;;9.93;;
4508;SDS011;2267;48.816;9.230;2023-05-14T03:33:22;11.23;;;10.33;;
4508;SDS011;2267;48.816;9.230;2023-05-14T03:35:49;12.27;;;11.37;;
4508;SDS011;2267;48.816;9.230;2023-05-14T03:38:17;10.80;;;10.10;;
4508;SDS011;2267;48.816;9.230;2023-05-14T03:40:43;11.07;;;10.30;;
4508;SDS011;2267;48.816;9.230;2023-05-14T03:43:11;10.67;;;9.77;;
4508;SDS011;2267;48.816;9.230;2023-05-14T03:45:38;10.47;;;9.77;;
4508;SDS011;2267;48.816;9.230;2023-05-14T03:48:05;10.27;;;9.50;;
4508;SDS011;2267;48.816;9.230;2023-05-14T03:50:32;11.90;;;11.00;;
4508;SDS011;2267;48.816;9.230;2023-05-14T03:52:59;11.43;;;10.53;;
4508;SDS011;2267;48.816;9.230;2023-05-14T03:55:26;10.30;;;9.60;;
4508;SDS011;2267;48.816;9.230;2023-05-14T03:57:53;10.13;;;9.27;;
4508;SDS011;2267;48.816;9.230;2023-05-14T04:00:19;11.20;;;10.30;;
4508;SDS011;2267;48.816;9.230;2023-05-14T04:02:47;11.60;;;10.80;;
4508;SDS011;2267;48.816;9.230;2023-05-14T04:05:14;10.70;;;9.83;;
4508;SDS011;2267;48.816;9.230;2023-05-14T04:07:40;9.97;;;9.27;;
4508;SDS011;2267;48.816;9.230;2023-05-14T04:10:07;9.50;;;8.80;;
4508;SDS011;2267;48.816;9.230;2023-05-14T04:12:34;10.03;;;9.23;;
4508;SDS011;2267;48.816;9.230;2023-05-14T04:15:01;10.90;;;10.10;;
4508;SDS011;2267;48.816;9.230;2023-05-14T04:17:28;10.10;;;9.40;;
4508;SDS011;2267;48.816;9.230;2023-05-14T04:19:55;9.73;;;9.07;;
4508;SDS011;2267;48.816;9.230;2023-05-14T04:22:21;9.93;;;9.23;;
4508;SDS011;2267;48.816;9.230;2023-05-14T04:24:48;10.60;;;9.80;;
4508;SDS011;2267;48.816;9.230;2023-05-14T04:27:21;10.20;;;9.40;;
4508;SDS011;2267;48.816;9.230;2023-05-14T04:29:48;10.43;;;9.50;;
4508;SDS011;2267;48.816;9.230;2023-05-14T04:32:15;10.40;;;9.60;;
4508;SDS011;2267;48.816;9.230;2023-05-14T04:34:43;11.47;;;10.50;;
4508;SDS011;2267;48.816;9.230;2023-05-14T04:37:09;10.23;;;9.43;;
4508;SDS011;2267;48.816;9.230;2023-05-14T04:39:36;10.53;;;9.80;;
4508;SDS011;2267;48.816;9.230;2023-05-14T04:42:03;10.67;;;9.87;;
4508;SDS011;2267;48.816;9.230;2023-05-14T04:44:32;9.80;;;9.10;;
4508;SDS011;2267;48.816;9.230;2023-05-14T04:47:00;11.20;;;10.30;;
4508;SDS011;2267;48.816;9.230;2023-05-14T04:49:28;10.57;;;9.77;;
4508;SDS011;2267;48.816;9.230;2023-05-14T04:51:55;10.33;;;9.33;;
4508;SDS011;2267;48.816;9.230;2023-05-14T04:54:22;10.07;;;9.37;;
4508;SDS011;2267;48.816;9.230;2023-05-14T04:56:49;11.33;;;10.13;;
4508;SDS011;2267;48.816;9.230;2023-05-14T04:59:16;10.97;;;10.07;;
4508;SDS011;2267;48.816;9.230;2023-05-14T05:01:43;11.40;;;10.60;;
4508;SDS011;2267;48.816;9.230;2023-05-14T05:04:11;10.00;;;9.20;;
4508;SDS011;2267;48.816;9.230;2023-05-14T05:06:38;10.77;;;9.77;;
4508;SDS011;2267;48.816;9.230;2023-05-14T05:09:05;11.00;;;10.20;;
4508;SDS011;2267;48.816;9.230;2023-05-14T05:11:31;11.13;;;10.40;;
4508;SDS011;2267;48.816;9.230;2023-05-14T05:13:58;10.30;;;9.50;;
4508;SDS011;2267;48.816;9.230;2023-05-14T05:16:25;11.67;;;10.53;;
4508;SDS011;2267;48.816;9.230;2023-05-14T05:18:52;10.97;;;10.07;;
4508;SDS011;2267;48.816;9.230;2023-05-14T05:21:19;11.37;;;10.57;;
4508;SDS011;2267;48.816;9.230;2023-05-14T05:23:45;11.10;;;10.20;;
4508;SDS011;2267;48.816;9.230;2023-05-14T05:26:12;11.20;;;10.30;;
4508;SDS011;2267;48.816;9.230;2023-05-14T05:28:39;11.13;;;10.30;;
4508;SDS011;2267;48.816;9.230;2023-05-14T05:31:06;10.27;;;9.53;;
4508;SDS011;2267;48.816;9.230;2023-05-14T05:33:33;11.47;;;10.37;;
4508;SDS011;2267;48.816;9.230;2023-05-14T05:36:00;11.43;;;10.60;;
4508;SDS011;2267;48.816;9.230;2023-05-14T05:38:28;12.40;;;11.50;;
4508;SDS011;2267;48.816;9.230;2023-05-14T05:40:54;11.50;;;10.70;;
4508;SDS011;2267;48.816;9.230;2023-05-14T05:43:21;12.23;;;11.33;;
4508;SDS011;2267;48.816;9.230;2023-05-14T05:45:48;10.60;;;9.80;;
4508;SDS011;2267;48.816;9.230;2023-05-14T05:48:15;12.07;;;11.17;;
4508;SDS011;2267;48.816;9.230;2023-05-14T05:50:42;11.00;;;10.20;;
4508;SDS011;2267;48.816;9.230;2023-05-14T05:53:10;11.50;;;10.70;;
4508;SDS011;2267;48.816;9.230;2023-05-14T05:55:37;12.00;;;11.00;;
4508;SDS011;2267;48.816;9.230;2023-05-14T05:58:05;11.87;;;10.97;;
4508;SDS011;2267;48.816;9.230;2023-05-14T06:00:32;11.77;;;10.77;;
4508;SDS011;2267;48.816;9.230;2023-05-14T06:02:59;11.60;;;10.80;;
4508;SDS011;2267;48.816;9.230;2023-05-14T06:05:26;12.20;;;11.30;;
4508;SDS011;2267;48.816;9.230;2023-05-14T06:07:53;11.10;;;10.00;;
4508;SDS011;2267;48.816;9.230;2023-05-14T06:10:19;11.13;;;10.23;;
4508;SDS011;2267;48.816;9.230;2023-05-14T06:12:47;11.27;;;10.30;;
4508;SDS011;2267;48.816;9.230;2023-05-14T06:15:14;10.90;;;10.13;;
4508;SDS011;2267;48.816;9.230;2023-05-14T06:17:40;10.27;;;9.53;;
4508;SDS011;2267;48.816;9.230;2023-05-14T06:20:07;11.37;;;10.47;;
4508;SDS011;2267;48.816;9.230;2023-05-14T06:22:35;10.63;;;9.83;;
4508;SDS011;2267;48.816;9.230;2023-05-14T06:25:01;10.97;;;10.23;;
4508;SDS011;2267;48.816;9.230;2023-05-14T06:27:28;11.63;;;10.63;;
4508;SDS011;2267;48.816;9.230;2023-05-14T06:29:55;10.60;;;9.80;;
4508;SDS011;2267;48.816;9.230;2023-05-14T06:32:22;11.70;;;10.90;;
4508;SDS011;2267;48.816;9.230;2023-05-14T06:34:49;10.90;;;10.00;;
4508;SDS011;2267;48.816;9.230;2023-05-14T06:37:16;12.33;;;11.43;;
4508;SDS011;2267;48.816;9.230;2023-05-14T06:39:42;12.10;;;11.00;;
4508;SDS011;2267;48.816;9.230;2023-05-14T06:42:15;12.40;;;11.60;;
4508;SDS011;2267;48.816;9.230;2023-05-14T06:44:42;11.90;;;10.90;;
4508;SDS011;2267;48.816;9.230;2023-05-14T06:47:09;10.30;;;9.60;;
4508;SDS011;2267;48.816;9.230;2023-05-14T06:49:36;11.60;;;10.77;;
4508;SDS011;2267;48.816;9.230;2023-05-14T06:52:03;13.03;;;11.93;;
4508;SDS011;2267;48.816;9.230;2023-05-14T06:54:30;12.20;;;11.20;;
4508;SDS011;2267;48.816;9.230;2023-05-14T06:56:57;11.47;;;10.67;;
4508;SDS011;2267;48.816;9.230;2023-05-14T06:59:24;12.33;;;11.33;;
4508;SDS011;2267;48.816;9.230;2023-05-14T07:01:51;12.07;;;11.17;;
4508;SDS011;2267;48.816;9.230;2023-05-14T07:04:17;12.80;;;11.80;;
4508;SDS011;2267;48.816;9.230;2023-05-14T07:06:44;10.47;;;9.67;;
4508;SDS011;2267;48.816;9.230;2023-05-14T07:09:11;12.17;;;11.27;;
4508;SDS011;2267;48.816;9.230;2023-05-14T07:11:38;12.67;;;11.70;;
4508;SDS011;2267;48.816;9.230;2023-05-14T07:14:05;12.13;;;11.23;;
4508;SDS011;2267;48.816;9.230;2023-05-14T07:16:32;13.10;;;12.10;;
4508;SDS011;2267;48.816;9.230;2023-05-14T07:18:58;12.70;;;11.60;;
4508;SDS011;2267;48.816;9.230;2023-05-14T07:21:25;12.10;;;11.10;;
4508;SDS011;2267;48.816;9.230;2023-05-14T07:23:53;11.73;;;10.73;;
4508;SDS011;2267;48.816;9.230;2023-05-14T07:26:19;11.83;;;10.93;;
4508;SDS011;2267;48.816;9.230;2023-05-14T07:28:48;12.40;;;11.33;;
4508;SDS011;2267;48.816;9.230;2023-05-14T07:31:15;12.40;;;11.40;;
4508;SDS011;2267;48.816;9.230;2023-05-14T07:33:42;10.67;;;9.87;;
4508;SDS011;2267;48.816;9.230;2023-05-14T07:36:09;12.50;;;11.50;;
4508;SDS011;2267;48.816;9.230;2023-05-14T07:38:36;12.93;;;11.93;;
4508;SDS011;2267;48.816;9.230;2023-05-14T07:41:03;11.30;;;10.40;;
4508;SDS011;2267;48.816;9.230;2023-05-14T07:43:30;13.03;;;11.83;;
4508;SDS011;2267;48.816;9.230;2023-05-14T07:45:57;12.30;;;11.30;;
4508;SDS011;2267;48.816;9.230;2023-05-14T07:48:23;12.87;;;11.70;;
4508;SDS011;2267;48.816;9.230;2023-05-14T07:50:50;12.97;;;11.70;;
4508;SDS011;2267;48.816;9.230;2023-05-14T07:53:17;13.33;;;12.33;;
4508;SDS011;2267;48.816;9.230;2023-05-14T07:55:44;13.13;;;12.13;;
4508;SDS011;2267;48.816;9.230;2023-05-14T07:58:13;10.73;;;9.83;;
4508;SDS011;2267;48.816;9.230;2023-05-14T08:00:41;10.53;;;9.73;;
4508;SDS011;2267;48.816;9.230;2023-05-14T08:03:08;11.70;;;10.57;;
4508;SDS011;2267;48.816;9.230;2023-05-14T08:05:34;10.67;;;9.87;;
4508;SDS011;2267;48.816;9.230;2023-05-14T08:08:01;12.10;;;11.10;;
4508;SDS011;2267;48.816;9.230;2023-05-14T08:10:28;12.37;;;11.37;;
4508;SDS011;2267;48.816;9.230;2023-05-14T08:12:55;12.10;;;11.17;;
4508;SDS011;2267;48.816;9.230;2023-05-14T08:15:22;11.30;;;10.40;;
4508;SDS011;2267;48.816;9.230;2023-05-14T08:17:52;11.57;;;10.77;;
4508;SDS011;2267;48.816;9.230;2023-05-14T08:20:19;12.40;;;11.40;;
4508;SDS011;2267;48.816;9.230;2023-05-14T08:22:46;12.73;;;11.50;;
4508;SDS011;2267;48.816;9.230;2023-05-14T08:25:13;11.17;;;10.27;;
4508;SDS011;2267;48.816;9.230;2023-05-14T08:27:40;11.37;;;10.47;;
4508;SDS011;2267;48.816;9.230;2023-05-14T08:30:06;12.17;;;11.20;;
4508;SDS011;2267;48.816;9.230;2023-05-14T08:32:34;12.50;;;11.50;;
4508;SDS011;2267;48.816;9.230;2023-05-14T08:35:01;12.10;;;11.00;;
4508;SDS011;2267;48.816;9.230;2023-05-14T08:37:27;11.20;;;10.30;;
4508;SDS011;2267;48.816;9.230;2023-05-14T08:39:54;12.33;;;11.17;;
4508;SDS011;2267;48.816;9.230;2023-05-14T08:42:21;11.73;;;10.87;;
4508;SDS011;2267;48.816;9.230;2023-05-14T08:44:57;11.90;;;11.00;;
4508;SDS011;2267;48.816;9.230;2023-05-14T08:47:29;10.50;;;9.70;;
4508;SDS011;2267;48.816;9.230;2023-05-14T08:50:00;11.63;;;10.83;;
4508;SDS011;2267;48.816;9.230;2023-05-14T08:52:29;10.20;;;9.37;;
4508;SDS011;2267;48.816;9.230;2023-05-14T08:55:01;12.10;;;11.10;;
4508;SDS011;2267;48.816;9.230;2023-05-14T08:57:33;11.10;;;10.30;;
4508;SDS011;2267;48.816;9.230;2023-05-14T09:00:01;11.63;;;10.63;;
4508;SDS011;2267;48.816;9.230;2023-05-14T09:02:40;11.30;;;10.40;;
4508;SDS011;2267;48.816;9.230;2023-05-14T09:05:09;11.13;;;10.30;;
4508;SDS011;2267;48.816;9.230;2023-05-14T09:07:36;11.13;;;10.23;;
4508;SDS011;2267;48.816;9.230;2023-05-14T09:10:03;12.50;;;11.60;;
4508;SDS011;2267;48.816;9.230;2023-05-14T09:12:30;13.83;;;12.73;;
4508;SDS011;2267;48.816;9.230;2023-05-14T09:14:57;12.27;;;11.37;;
4508;SDS011;2267;48.816;9.230;2023-05-14T09:17:25;13.87;;;12.77;;
4508;SDS011;2267;48.816;9.230;2023-05-14T09:19:54;13.57;;;12.57;;
4508;SDS011;2267;48.816;9.230;2023-05-14T09:22:21;13.40;;;12.30;;
4508;SDS011;2267;48.816;9.230;2023-05-14T09:25:04;13.07;;;11.97;;
4508;SDS011;2267;48.816;9.230;2023-05-14T09:27:36;11.27;;;10.47;;
4508;SDS011;2267;48.816;9.230;2023-05-14T09:30:12;12.83;;;11.83;;
4508;SDS011;2267;48.816;9.230;2023-05-14T09:32:41;12.03;;;11.13;;
4508;SDS011;2267;48.816;9.230;2023-05-14T09:35:13;12.13;;;11.13;;
4508;SDS011;2267;48.816;9.230;2023-05-14T09:37:44;13.33;;;12.33;;
4508;SDS011;2267;48.816;9.230;2023-05-14T09:40:12;12.40;;;11.50;;
4508;SDS011;2267;48.816;9.230;2023-05-14T09:42:40;12.13;;;11.13;;
4508;SDS011;2267;48.816;9.230;2023-05-14T09:45:07;11.30;;;10.30;;
4508;SDS011;2267;48.816;9.230;2023-05-14T09:47:35;9.80;;;8.80;;
4508;SDS011;2267;48.816;9.230;2023-05-14T09:50:03;11.37;;;10.47;;
4508;SDS011;2267;48.816;9.230;2023-05-14T09:52:31;11.53;;;10.63;;
4508;SDS011;2267;48.816;9.230;2023-05-14T09:54:59;12.50;;;11.60;;
4508;SDS011;2267;48.816;9.230;2023-05-14T09:57:26;11.40;;;10.50;;
4508;SDS011;2267;48.816;9.230;2023-05-14T09:59:53;9.97;;;9.27;;
4508;SDS011;2267;48.816;9.230;2023-05-14T10:02:24;10.43;;;9.60;;
4508;SDS011;2267;48.816;9.230;2023-05-14T10:04:56;9.87;;;9.10;;
4508;SDS011;2267;48.816;9.230;2023-05-14T10:07:28;10.10;;;9.30;;
4508;SDS011;2267;48.816;9.230;2023-05-14T10:10:02;9.43;;;8.70;;
4508;SDS011;2267;48.816;9.230;2023-05-14T10:12:35;10.27;;;9.40;;
4508;SDS011;2267;48.816;9.230;2023-05-14T10:15:07;10.07;;;9.20;;
4508;SDS011;2267;48.816;9.230;2023-05-14T10:17:42;10.80;;;10.00;;
4508;SDS011;2267;48.816;9.230;2023-05-14T10:20:14;9.80;;;9.10;;
4508;SDS011;2267;48.816;9.230;2023-05-14T10:22:43;10.10;;;9.40;;
4508;SDS011;2267;48.816;9.230;2023-05-14T10:25:12;8.40;;;7.70;;
4508;SDS011;2267;48.816;9.230;2023-05-14T10:27:39;11.07;;;10.23;;
4508;SDS011;2267;48.816;9.230;2023-05-14T10:30:10;10.13;;;9.33;;
4508;SDS011;2267;48.816;9.230;2023-05-14T10:32:42;9.23;;;8.53;;
4508;SDS011;2267;48.816;9.230;2023-05-14T10:35:16;8.83;;;8.13;;
4508;SDS011;2267;48.816;9.230;2023-05-14T10:37:46;9.00;;;8.10;;
4508;SDS011;2267;48.816;9.230;2023-05-14T10:40:16;10.10;;;9.37;;
4508;SDS011;2267;48.816;9.230;2023-05-14T10:42:44;8.87;;;8.07;;
4508;SDS011;2267;48.816;9.230;2023-05-14T10:45:12;8.73;;;8.03;;
4508;SDS011;2267;48.816;9.230;2023-05-14T10:47:44;10.23;;;9.33;;
4508;SDS011;2267;48.816;9.230;2023-05-14T10:50:15;9.57;;;8.80;;
4508;SDS011;2267;48.816;9.230;2023-05-14T10:52:43;10.17;;;9.27;;
4508;SDS011;2267;48.816;9.230;2023-05-14T10:55:14;11.30;;;10.47;;
4508;SDS011;2267;48.816;9.230;2023-05-14T10:57:43;9.60;;;8.80;;
4508;SDS011;2267;48.816;9.230;2023-05-14T11:00:11;10.10;;;9.20;;
4508;SDS011;2267;48.816;9.230;2023-05-14T11:02:40;10.17;;;9.20;;
4508;SDS011;2267;48.816;9.230;2023-05-14T11:10:12;10.00;;;9.10;;
4508;SDS011;2267;48.816;9.230;2023-05-14T11:12:41;10.40;;;9.40;;
4508;SDS011;2267;48.816;9.230;2023-05-14T11:15:11;8.30;;;7.70;;
4508;SDS011;2267;48.816;9.230;2023-05-14T11:17:42;9.23;;;8.43;;
4508;SDS011;2267;48.816;9.230;2023-05-14T11:20:10;9.83;;;9.03;;
4508;SDS011;2267;48.816;9.230;2023-05-14T11:22:38;8.87;;;8.27;;
4508;SDS011;2267;48.816;9.230;2023-05-14T11:25:06;8.60;;;8.00;;
4508;SDS011;2267;48.816;9.230;2023-05-14T11:27:34;7.50;;;6.90;;
4508;SDS011;2267;48.816;9.230;2023-05-14T11:30:03;9.37;;;8.57;;
4508;SDS011;2267;48.816;9.230;2023-05-14T11:32:31;8.83;;;8.23;;
4508;SDS011;2267;48.816;9.230;2023-05-14T11:34:59;8.77;;;7.97;;
4508;SDS011;2267;48.816;9.230;2023-05-14T11:37:26;8.00;;;7.40;;
4508;SDS011;2267;48.816;9.230;2023-05-14T11:39:53;12.33;;;11.33;;
4508;SDS011;2267;48.816;9.230;2023-05-14T11:42:21;9.13;;;8.40;;
4508;SDS011;2267;48.816;9.230;2023-05-14T11:44:49;11.40;;;10.50;;
4508;SDS011;2267;48.816;9.230;2023-05-14T11:47:17;7.80;;;7.20;;
4508;SDS011;2267;48.816;9.230;2023-05-14T11:49:46;9.27;;;8.57;;
4508;SDS011;2267;48.816;9.230;2023-05-14T11:52:14;9.47;;;8.67;;
4508;SDS011;2267;48.816;9.230;2023-05-14T11:54:44;7.33;;;6.73;;
4508;SDS011;2267;48.816;9.230;2023-05-14T11:57:12;6.93;;;6.40;;
4508;SDS011;2267;48.816;9.230;2023-05-14T11:59:41;9.80;;;9.10;;
4508;SDS011;2267;48.816;9.230;2023-05-14T12:02:08;8.03;;;7.43;;
4508;SDS011;2267;48.816;9.230;2023-05-14T12:04:37;8.20;;;7.60;;
4508;SDS011;2267;48.816;9.230;2023-05-14T12:07:08;7.07;;;6.57;;
4508;SDS011;2267;48.816;9.230;2023-05-14T12:09:38;6.60;;;6.13;;
4508;SDS011;2267;48.816;9.230;2023-05-14T12:12:10;7.23;;;6.63;;
4508;SDS011;2267;48.816;9.230;2023-05-14T12:14:39;8.13;;;6.90;;
4508;SDS011;2267;48.816;9.230;2023-05-14T12:17:14;6.23;;;5.83;;
4508;SDS011;2267;48.816;9.230;2023-05-14T12:19:42;7.30;;;6.70;;
4508;SDS011;2267;48.816;9.230;2023-05-14T12:22:10;6.13;;;5.63;;
4508;SDS011;2267;48.816;9.230;2023-05-14T12:24:38;7.17;;;6.50;;
4508;SDS011;2267;48.816;9.230;2023-05-14T12:27:06;7.00;;;6.40;;
4508;SDS011;2267;48.816;9.230;2023-05-14T12:29:35;6.30;;;5.80;;
4508;SDS011;2267;48.816;9.230;2023-05-14T12:32:07;5.73;;;5.33;;
4508;SDS011;2267;48.816;9.230;2023-05-14T12:34:35;5.87;;;5.47;;
4508;SDS011;2267;48.816;9.230;2023-05-14T12:37:03;5.60;;;5.10;;
4508;SDS011;2267;48.816;9.230;2023-05-14T12:39:32;6.53;;;5.93;;
4508;SDS011;2267;48.816;9.230;2023-05-14T12:41:59;6.57;;;6.03;;
4508;SDS011;2267;48.816;9.230;2023-05-14T12:44:27;6.20;;;5.70;;
4508;SDS011;2267;48.816;9.230;2023-05-14T12:46:54;5.20;;;4.80;;
4508;SDS011;2267;48.816;9.230;2023-05-14T12:49:21;5.40;;;4.90;;
4508;SDS011;2267;48.816;9.230;2023-05-14T12:51:48;5.40;;;5.00;;
4508;SDS011;2267;48.816;9.230;2023-05-14T12:54:21;6.00;;;5.50;;
4508;SDS011;2267;48.816;9.230;2023-05-14T12:56:48;5.37;;;4.90;;
4508;SDS011;2267;48.816;9.230;2023-05-14T12:59:15;6.00;;;5.50;;
4508;SDS011;2267;48.816;9.230;2023-05-14T13:01:42;4.40;;;4.00;;
4508;SDS011;2267;48.816;9.230;2023-05-14T13:04:09;4.90;;;4.50;;
4508;SDS011;2267;48.816;9.230;2023-05-14T13:06:39;4.60;;;4.30;;
4508;SDS011;2267;48.816;9.230;2023-05-14T13:09:06;5.47;;;5.07;;
4508;SDS011;2267;48.816;9.230;2023-05-14T13:11:33;5.60;;;5.10;;
4508;SDS011;2267;48.816;9.230;2023-05-14T13:14:00;4.50;;;4.10;;
4508;SDS011;2267;48.816;9.230;2023-05-14T13:16:28;4.60;;;4.30;;
4508;SDS011;2267;48.816;9.230;2023-05-14T13:18:55;4.00;;;3.70;;
4508;SDS011;2267;48.816;9.230;2023-05-14T13:21:22;4.80;;;4.50;;
4508;SDS011;2267;48.816;9.230;2023-05-14T13:23:49;5.10;;;4.70;;
4508;SDS011;2267;48.816;9.230;2023-05-14T13:26:16;5.60;;;5.10;;
4508;SDS011;2267;48.816;9.230;2023-05-14T13:28:43;5.20;;;4.70;;
4508;SDS011;2267;48.816;9.230;2023-05-14T13:31:10;4.40;;;4.10;;
4508;SDS011;2267;48.816;9.230;2023-05-14T13:33:39;5.60;;;5.20;;
4508;SDS011;2267;48.816;9.230;2023-05-14T13:36:07;5.50;;;5.10;;
4508;SDS011;2267;48.816;9.230;2023-05-14T13:38:35;4.60;;;4.30;;
4508;SDS011;2267;48.816;9.230;2023-05-14T13:41:03;8.30;;;4.53;;
4508;SDS011;2267;48.816;9.230;2023-05-14T13:43:31;5.20;;;4.73;;
4508;SDS011;2267;48.816;9.230;2023-05-14T13:45:59;5.33;;;4.90;;
4508;SDS011;2267;48.816;9.230;2023-05-14T13:48:27;4.60;;;4.30;;
4508;SDS011;2267;48.816;9.230;2023-05-14T13:50:56;4.53;;;4.17;;
4508;SDS011;2267;48.816;9.230;2023-05-14T13:53:23;6.10;;;5.50;;
4508;SDS011;2267;48.816;9.230;2023-05-14T13:55:51;5.07;;;4.67;;
4508;SDS011;2267;48.816;9.230;2023-05-14T13:58:22;5.33;;;4.93;;
4508;SDS011;2267;48.816;9.230;2023-05-14T14:00:52;5.33;;;4.93;;
4508;SDS011;2267;48.816;9.230;2023-05-14T14:03:19;5.20;;;4.80;;
4508;SDS011;2267;48.816;9.230;2023-05-14T14:05:46;5.37;;;4.97;;
4508;SDS011;2267;48.816;9.230;2023-05-14T14:08:13;5.40;;;5.00;;
4508;SDS011;2267;48.816;9.230;2023-05-14T14:10:49;4.73;;;4.33;;
4508;SDS011;2267;48.816;9.230;2023-05-14T14:13:16;4.77;;;4.37;;
4508;SDS011;2267;48.816;9.230;2023-05-14T14:15:43;5.30;;;4.80;;
4508;SDS011;2267;48.816;9.230;2023-05-14T14:18:10;5.30;;;4.90;;
4508;SDS011;2267;48.816;9.230;2023-05-14T14:20:37;6.00;;;4.77;;
4508;SDS011;2267;48.816;9.230;2023-05-14T14:23:04;4.33;;;3.93;;
4508;SDS011;2267;48.816;9.230;2023-05-14T14:25:30;4.57;;;4.20;;
4508;SDS011;2267;48.816;9.230;2023-05-14T14:27:57;5.07;;;4.67;;
4508;SDS011;2267;48.816;9.230;2023-05-14T14:30:24;4.60;;;4.30;;
4508;SDS011;2267;48.816;9.230;2023-05-14T14:32:51;4.67;;;4.27;;
4508;SDS011;2267;48.816;9.230;2023-05-14T14:35:18;3.53;;;3.23;;
4508;SDS011;2267;48.816;9.230;2023-05-14T14:37:45;3.90;;;3.60;;
4508;SDS011;2267;48.816;9.230;2023-05-14T14:40:17;3.93;;;3.63;;
4508;SDS011;2267;48.816;9.230;2023-05-14T14:42:44;4.50;;;4.10;;
4508;SDS011;2267;48.816;9.230;2023-05-14T14:45:11;3.87;;;3.50;;
4508;SDS011;2267;48.816;9.230;2023-05-14T14:47:41;4.40;;;4.00;;
4508;SDS011;2267;48.816;9.230;2023-05-14T14:50:09;4.40;;;4.00;;
4508;SDS011;2267;48.816;9.230;2023-05-14T14:52:38;4.67;;;4.00;;
4508;SDS011;2267;48.816;9.230;2023-05-14T14:55:06;4.33;;;3.93;;
4508;SDS011;2267;48.816;9.230;2023-05-14T14:57:33;4.17;;;3.70;;
4508;SDS011;2267;48.816;9.230;2023-05-14T15:00:00;4.33;;;4.03;;
4508;SDS011;2267;48.816;9.230;2023-05-14T15:02:28;4.30;;;4.00;;
4508;SDS011;2267;48.816;9.230;2023-05-14T15:04:55;4.23;;;3.83;;
4508;SDS011;2267;48.816;9.230;2023-05-14T15:07:22;5.03;;;3.87;;
4508;SDS011;2267;48.816;9.230;2023-05-14T15:09:48;3.93;;;3.33;;
4508;SDS011;2267;48.816;9.230;2023-05-14T15:12:15;4.03;;;3.70;;
4508;SDS011;2267;48.816;9.230;2023-05-14T15:14:42;4.17;;;3.77;;
4508;SDS011;2267;48.816;9.230;2023-05-14T15:17:09;4.07;;;3.77;;
4508;SDS011;2267;48.816;9.230;2023-05-14T15:19:36;4.90;;;4.23;;